sensor_id;sensor_type;location;lat;lon;timestamp;pressure;altitude;pressure_sealevel;temperature;humidity
74798;BME280;63326;45.088;7.658;2023-01-09T00:00:50;97876.03;;;5.23;90.52
74798;BME280;63326;45.088;7.658;2023-01-09T00:03:17;97863.38;;;5.33;90.15
74798;BME280;63326;45.088;7.658;2023-01-09T00:05:44;97840.13;;;5.35;89.64
74798;BME280;63326;45.088;7.658;2023-01-09T00:08:10;97806.41;;;5.27;89.45
74798;BME280;63326;45.088;7.658;2023-01-09T00:10:37;97785.50;;;5.08;88.75
74798;BME280;63326;45.088;7.658;2023-01-09T00:13:04;97847.94;;;5.20;88.94
74798;BME280;63326;45.088;7.658;2023-01-09T00:15:30;97849.13;;;5.01;89.12
74798;BME280;63326;45.088;7.658;2023-01-09T00:17:57;97856.94;;;5.03;89.52
74798;BME280;63326;45.088;7.658;2023-01-09T00:20:24;97847.47;;;4.92;89.64
74798;BME280;63326;45.088;7.658;2023-01-09T00:22:50;97853.44;;;4.94;89.41
74798;BME280;63326;45.088;7.658;2023-01-09T00:25:17;97849.28;;;4.83;88.52
74798;BME280;63326;45.088;7.658;2023-01-09T00:27:44;97827.38;;;4.65;89.29
74798;BME280;63326;45.088;7.658;2023-01-09T00:30:11;97844.31;;;4.64;89.60
74798;BME280;63326;45.088;7.658;2023-01-09T00:32:38;97818.25;;;4.51;89.87
74798;BME280;63326;45.088;7.658;2023-01-09T00:35:06;97808.25;;;4.37;89.20
74798;BME280;63326;45.088;7.658;2023-01-09T00:37:34;97812.59;;;4.46;89.36
74798;BME280;63326;45.088;7.658;2023-01-09T00:40:00;97816.38;;;4.36;89.66
74798;BME280;63326;45.088;7.658;2023-01-09T00:42:29;97802.94;;;4.21;89.48
74798;BME280;63326;45.088;7.658;2023-01-09T00:45:00;97832.31;;;4.36;89.48
74798;BME280;63326;45.088;7.658;2023-01-09T00:47:32;97826.66;;;4.22;89.28
74798;BME280;63326;45.088;7.658;2023-01-09T00:50:07;97831.72;;;4.08;89.27
74798;BME280;63326;45.088;7.658;2023-01-09T00:52:37;97833.91;;;4.12;89.81
74798;BME280;63326;45.088;7.658;2023-01-09T00:55:05;97849.38;;;4.25;90.03
74798;BME280;63326;45.088;7.658;2023-01-09T00:57:32;97835.22;;;4.08;89.94
74798;BME280;63326;45.088;7.658;2023-01-09T00:59:59;97839.22;;;4.12;89.96
74798;BME280;63326;45.088;7.658;2023-01-09T01:02:26;97839.41;;;4.27;89.83
74798;BME280;63326;45.088;7.658;2023-01-09T01:04:53;97811.72;;;4.21;90.85
74798;BME280;63326;45.088;7.658;2023-01-09T01:07:38;97819.72;;;4.29;90.44
74798;BME280;63326;45.088;7.658;2023-01-09T01:10:18;97823.72;;;4.42;90.41
74798;BME280;63326;45.088;7.658;2023-01-09T01:12:47;97808.94;;;4.47;90.69
74798;BME280;63326;45.088;7.658;2023-01-09T01:15:15;97780.09;;;4.52;90.43
74798;BME280;63326;45.088;7.658;2023-01-09T01:17:42;97728.81;;;4.36;90.29
74798;BME280;63326;45.088;7.658;2023-01-09T01:20:12;97748.06;;;4.46;89.67
74798;BME280;63326;45.088;7.658;2023-01-09T01:22:39;97760.16;;;4.48;89.73
74798;BME280;63326;45.088;7.658;2023-01-09T01:25:09;97771.63;;;4.32;89.57
74798;BME280;63326;45.088;7.658;2023-01-09T01:27:35;97790.69;;;4.36;88.88
74798;BME280;63326;45.088;7.658;2023-01-09T01:30:03;97740.88;;;4.05;89.44
74798;BME280;63326;45.088;7.658;2023-01-09T01:32:30;97776.56;;;4.27;89.61
74798;BME280;63326;45.088;7.658;2023-01-09T01:34:56;97773.41;;;4.24;89.60
74798;BME280;63326;45.088;7.658;2023-01-09T01:37:23;97768.06;;;4.08;89.65
74798;BME280;63326;45.088;7.658;2023-01-09T01:39:50;97775.22;;;3.99;89.17
74798;BME280;63326;45.088;7.658;2023-01-09T01:42:17;97759.75;;;3.86;89.38
74798;BME280;63326;45.088;7.658;2023-01-09T01:45:06;97746.78;;;3.75;89.12
74798;BME280;63326;45.088;7.658;2023-01-09T01:47:53;97757.56;;;3.73;89.93
74798;BME280;63326;45.088;7.658;2023-01-09T01:50:55;97752.88;;;3.59;90.25
74798;BME280;63326;45.088;7.658;2023-01-09T01:53:28;97757.38;;;3.67;90.92
74798;BME280;63326;45.088;7.658;2023-01-09T01:58:25;97783.38;;;3.63;91.18
74798;BME280;63326;45.088;7.658;2023-01-09T02:00:52;97741.09;;;3.54;90.88
74798;BME280;63326;45.088;7.658;2023-01-09T02:03:22;97777.41;;;3.61;90.70
74798;BME280;63326;45.088;7.658;2023-01-09T02:05:51;97776.25;;;3.64;90.32
74798;BME280;63326;45.088;7.658;2023-01-09T02:08:18;97732.56;;;3.34;90.29
74798;BME280;63326;45.088;7.658;2023-01-09T02:10:45;97800.47;;;3.69;90.25
74798;BME280;63326;45.088;7.658;2023-01-09T02:13:13;97751.34;;;3.49;90.81
74798;BME280;63326;45.088;7.658;2023-01-09T02:18:39;97752.88;;;3.67;89.97
74798;BME280;63326;45.088;7.658;2023-01-09T02:32:26;97754.28;;;3.80;88.63
74798;BME280;63326;45.088;7.658;2023-01-09T02:35:56;97755.13;;;3.88;88.93
74798;BME280;63326;45.088;7.658;2023-01-09T02:38:39;97763.94;;;4.05;89.65
74798;BME280;63326;45.088;7.658;2023-01-09T02:41:13;97756.34;;;4.10;89.73
74798;BME280;63326;45.088;7.658;2023-01-09T02:43:42;97720.34;;;4.08;89.78
74798;BME280;63326;45.088;7.658;2023-01-09T02:46:18;97725.00;;;4.22;89.78
74798;BME280;63326;45.088;7.658;2023-01-09T02:48:48;97708.44;;;4.20;89.80
74798;BME280;63326;45.088;7.658;2023-01-09T02:51:32;97676.06;;;4.16;89.40
74798;BME280;63326;45.088;7.658;2023-01-09T02:57:26;97615.72;;;3.86;89.63
74798;BME280;63326;45.088;7.658;2023-01-09T03:02:58;97656.50;;;3.93;89.65
74798;BME280;63326;45.088;7.658;2023-01-09T03:05:54;97666.78;;;3.80;89.31
74798;BME280;63326;45.088;7.658;2023-01-09T03:08:39;97661.13;;;3.74;89.47
74798;BME280;63326;45.088;7.658;2023-01-09T03:11:07;97669.72;;;3.60;89.87
74798;BME280;63326;45.088;7.658;2023-01-09T03:13:38;97687.94;;;3.63;89.99
74798;BME280;63326;45.088;7.658;2023-01-09T03:16:08;97657.41;;;3.43;89.19
74798;BME280;63326;45.088;7.658;2023-01-09T03:18:38;97705.00;;;3.61;89.82
74798;BME280;63326;45.088;7.658;2023-01-09T03:21:06;97704.66;;;3.56;90.21
74798;BME280;63326;45.088;7.658;2023-01-09T03:26:12;97761.22;;;3.72;89.68
74798;BME280;63326;45.088;7.658;2023-01-09T03:28:40;97718.72;;;3.56;89.51
74798;BME280;63326;45.088;7.658;2023-01-09T03:31:07;97731.06;;;3.73;89.84
74798;BME280;63326;45.088;7.658;2023-01-09T03:33:34;97721.47;;;3.81;89.24
74798;BME280;63326;45.088;7.658;2023-01-09T03:36:01;97735.88;;;3.86;89.00
74798;BME280;63326;45.088;7.658;2023-01-09T03:38:27;97753.31;;;3.89;88.66
74798;BME280;63326;45.088;7.658;2023-01-09T03:40:54;97766.72;;;3.95;88.29
74798;BME280;63326;45.088;7.658;2023-01-09T03:43:21;97754.97;;;3.90;88.25
74798;BME280;63326;45.088;7.658;2023-01-09T03:45:47;97741.31;;;3.76;87.47
74798;BME280;63326;45.088;7.658;2023-01-09T03:48:14;97727.06;;;3.69;87.67
74798;BME280;63326;45.088;7.658;2023-01-09T03:50:40;97726.69;;;3.56;87.32
74798;BME280;63326;45.088;7.658;2023-01-09T03:53:12;97680.31;;;3.52;88.37
74798;BME280;63326;45.088;7.658;2023-01-09T03:55:42;97671.00;;;3.40;89.41
74798;BME280;63326;45.088;7.658;2023-01-09T03:58:09;97661.53;;;3.29;89.82
74798;BME280;63326;45.088;7.658;2023-01-09T04:00:35;97675.09;;;3.34;90.12
74798;BME280;63326;45.088;7.658;2023-01-09T04:03:02;97688.19;;;3.36;90.05
74798;BME280;63326;45.088;7.658;2023-01-09T04:05:28;97681.38;;;3.25;90.10
74798;BME280;63326;45.088;7.658;2023-01-09T04:07:55;97689.16;;;3.27;89.89
74798;BME280;63326;45.088;7.658;2023-01-09T04:10:22;97676.72;;;3.19;90.06
74798;BME280;63326;45.088;7.658;2023-01-09T04:12:48;97691.28;;;3.23;89.94
74798;BME280;63326;45.088;7.658;2023-01-09T04:15:15;97669.91;;;3.08;90.24
74798;BME280;63326;45.088;7.658;2023-01-09T04:17:42;97669.03;;;3.00;90.20
74798;BME280;63326;45.088;7.658;2023-01-09T04:20:09;97664.31;;;2.85;90.68
74798;BME280;63326;45.088;7.658;2023-01-09T04:22:36;97668.97;;;2.92;91.02
74798;BME280;63326;45.088;7.658;2023-01-09T04:25:03;97655.63;;;3.01;91.20
74798;BME280;63326;45.088;7.658;2023-01-09T04:27:30;97639.91;;;3.00;91.07
74798;BME280;63326;45.088;7.658;2023-01-09T04:29:57;97626.78;;;2.90;91.31
74798;BME280;63326;45.088;7.658;2023-01-09T04:32:23;97631.41;;;2.88;90.72
74798;BME280;63326;45.088;7.658;2023-01-09T04:34:50;97653.75;;;2.94;90.61
74798;BME280;63326;45.088;7.658;2023-01-09T04:37:16;97644.16;;;2.93;90.48
74798;BME280;63326;45.088;7.658;2023-01-09T04:39:43;97617.97;;;2.81;90.40
74798;BME280;63326;45.088;7.658;2023-01-09T04:42:10;97619.47;;;2.84;89.89
74798;BME280;63326;45.088;7.658;2023-01-09T04:44:37;97578.50;;;2.62;89.92
74798;BME280;63326;45.088;7.658;2023-01-09T04:47:04;97607.22;;;2.83;90.13
74798;BME280;63326;45.088;7.658;2023-01-09T04:49:31;97606.50;;;2.73;89.66
74798;BME280;63326;45.088;7.658;2023-01-09T04:51:57;97611.81;;;2.73;89.42
74798;BME280;63326;45.088;7.658;2023-01-09T04:54:24;97617.53;;;2.60;90.14
74798;BME280;63326;45.088;7.658;2023-01-09T04:56:50;97601.22;;;2.39;90.09
74798;BME280;63326;45.088;7.658;2023-01-09T04:59:17;97621.63;;;2.46;90.13
74798;BME280;63326;45.088;7.658;2023-01-09T05:01:44;97631.75;;;2.59;90.31
74798;BME280;63326;45.088;7.658;2023-01-09T05:04:10;97629.13;;;2.59;90.27
74798;BME280;63326;45.088;7.658;2023-01-09T05:06:38;97619.41;;;2.68;90.94
74798;BME280;63326;45.088;7.658;2023-01-09T05:09:05;97639.19;;;2.89;91.06
74798;BME280;63326;45.088;7.658;2023-01-09T05:11:31;97613.50;;;2.82;90.57
74798;BME280;63326;45.088;7.658;2023-01-09T05:13:58;97599.13;;;2.84;90.90
74798;BME280;63326;45.088;7.658;2023-01-09T05:16:24;97618.97;;;3.31;92.21
74798;BME280;63326;45.088;7.658;2023-01-09T05:18:51;97619.31;;;3.36;91.97
74798;BME280;63326;45.088;7.658;2023-01-09T05:21:25;97626.75;;;3.32;91.84
74798;BME280;63326;45.088;7.658;2023-01-09T05:23:52;97643.84;;;3.38;91.52
74798;BME280;63326;45.088;7.658;2023-01-09T05:26:20;97594.44;;;3.12;92.08
74798;BME280;63326;45.088;7.658;2023-01-09T05:28:50;97596.25;;;3.12;92.31
74798;BME280;63326;45.088;7.658;2023-01-09T05:31:18;97637.53;;;3.47;92.49
74798;BME280;63326;45.088;7.658;2023-01-09T05:33:45;97651.16;;;3.52;93.00
74798;BME280;63326;45.088;7.658;2023-01-09T05:36:12;97641.72;;;3.50;92.49
74798;BME280;63326;45.088;7.658;2023-01-09T05:38:38;97638.06;;;3.51;92.51
74798;BME280;63326;45.088;7.658;2023-01-09T05:41:05;97657.97;;;3.63;92.78
74798;BME280;63326;45.088;7.658;2023-01-09T05:43:33;97659.47;;;3.73;93.28
74798;BME280;63326;45.088;7.658;2023-01-09T05:45:59;97626.31;;;3.53;93.01
74798;BME280;63326;45.088;7.658;2023-01-09T05:48:26;97693.28;;;3.88;93.46
74798;BME280;63326;45.088;7.658;2023-01-09T05:50:52;97661.47;;;3.71;94.00
74798;BME280;63326;45.088;7.658;2023-01-09T05:53:19;97702.59;;;4.00;93.55
74798;BME280;63326;45.088;7.658;2023-01-09T05:55:46;97711.22;;;4.02;92.70
74798;BME280;63326;45.088;7.658;2023-01-09T05:58:12;97708.22;;;3.97;93.16
74798;BME280;63326;45.088;7.658;2023-01-09T06:00:39;97713.22;;;4.00;92.69
74798;BME280;63326;45.088;7.658;2023-01-09T06:03:06;97701.44;;;4.02;93.33
74798;BME280;63326;45.088;7.658;2023-01-09T06:05:32;97725.34;;;4.11;93.17
74798;BME280;63326;45.088;7.658;2023-01-09T06:07:59;97726.31;;;4.01;93.01
74798;BME280;63326;45.088;7.658;2023-01-09T06:10:25;97730.59;;;3.94;91.27
74798;BME280;63326;45.088;7.658;2023-01-09T06:12:52;97726.16;;;4.03;89.92
74798;BME280;63326;45.088;7.658;2023-01-09T06:15:19;97718.50;;;3.92;88.41
74798;BME280;63326;45.088;7.658;2023-01-09T06:17:46;97710.34;;;3.77;88.24
74798;BME280;63326;45.088;7.658;2023-01-09T06:20:13;97726.78;;;3.97;89.24
74798;BME280;63326;45.088;7.658;2023-01-09T06:22:39;97735.44;;;3.99;89.03
74798;BME280;63326;45.088;7.658;2023-01-09T06:25:06;97731.56;;;3.85;87.90
74798;BME280;63326;45.088;7.658;2023-01-09T06:27:33;97738.38;;;3.88;87.62
74798;BME280;63326;45.088;7.658;2023-01-09T06:30:00;97741.50;;;3.75;87.96
74798;BME280;63326;45.088;7.658;2023-01-09T06:32:26;97748.09;;;3.63;89.34
74798;BME280;63326;45.088;7.658;2023-01-09T06:34:53;97742.28;;;3.59;89.73
74798;BME280;63326;45.088;7.658;2023-01-09T06:37:19;97759.72;;;3.70;90.18
74798;BME280;63326;45.088;7.658;2023-01-09T06:39:46;97758.38;;;3.74;89.55
74798;BME280;63326;45.088;7.658;2023-01-09T06:42:13;97756.94;;;3.80;90.30
74798;BME280;63326;45.088;7.658;2023-01-09T06:44:39;97766.69;;;3.87;90.05
74798;BME280;63326;45.088;7.658;2023-01-09T06:47:06;97758.63;;;3.89;90.09
74798;BME280;63326;45.088;7.658;2023-01-09T06:49:33;97735.88;;;3.86;90.74
74798;BME280;63326;45.088;7.658;2023-01-09T06:51:59;97735.56;;;3.81;90.43
74798;BME280;63326;45.088;7.658;2023-01-09T06:54:30;97749.97;;;3.87;89.84
74798;BME280;63326;45.088;7.658;2023-01-09T06:56:57;97759.31;;;3.99;90.48
74798;BME280;63326;45.088;7.658;2023-01-09T06:59:23;97743.38;;;4.07;90.31
74798;BME280;63326;45.088;7.658;2023-01-09T07:01:50;97731.09;;;4.06;90.33
74798;BME280;63326;45.088;7.658;2023-01-09T07:04:17;97734.44;;;4.00;90.11
74798;BME280;63326;45.088;7.658;2023-01-09T07:06:47;97743.38;;;3.99;90.53
74798;BME280;63326;45.088;7.658;2023-01-09T07:09:14;97740.88;;;3.97;90.83
74798;BME280;63326;45.088;7.658;2023-01-09T07:11:40;97746.34;;;3.96;90.65
74798;BME280;63326;45.088;7.658;2023-01-09T07:14:07;97738.88;;;3.83;90.99
74798;BME280;63326;45.088;7.658;2023-01-09T07:16:33;97735.72;;;3.80;92.04
74798;BME280;63326;45.088;7.658;2023-01-09T07:19:00;97739.19;;;3.80;92.17
74798;BME280;63326;45.088;7.658;2023-01-09T07:21:26;97745.81;;;3.84;92.21
74798;BME280;63326;45.088;7.658;2023-01-09T07:23:53;97775.50;;;3.96;92.46
74798;BME280;63326;45.088;7.658;2023-01-09T07:26:20;97770.88;;;3.90;91.67
74798;BME280;63326;45.088;7.658;2023-01-09T07:28:46;97770.72;;;3.91;92.49
74798;BME280;63326;45.088;7.658;2023-01-09T07:31:13;97744.97;;;3.75;92.11
74798;BME280;63326;45.088;7.658;2023-01-09T07:33:39;97763.91;;;3.89;91.96
74798;BME280;63326;45.088;7.658;2023-01-09T07:36:06;97766.38;;;3.82;93.01
74798;BME280;63326;45.088;7.658;2023-01-09T07:38:33;97753.59;;;3.78;92.93
74798;BME280;63326;45.088;7.658;2023-01-09T07:41:02;97770.53;;;3.93;92.91
74798;BME280;63326;45.088;7.658;2023-01-09T07:43:29;97782.09;;;3.75;92.73
74798;BME280;63326;45.088;7.658;2023-01-09T07:45:56;97779.81;;;3.89;92.39
74798;BME280;63326;45.088;7.658;2023-01-09T07:48:22;97776.16;;;3.82;92.22
74798;BME280;63326;45.088;7.658;2023-01-09T07:50:49;97791.00;;;3.66;92.46
74798;BME280;63326;45.088;7.658;2023-01-09T07:53:15;97791.03;;;3.74;92.62
74798;BME280;63326;45.088;7.658;2023-01-09T07:55:42;97786.84;;;3.64;92.33
74798;BME280;63326;45.088;7.658;2023-01-09T07:58:09;97808.44;;;3.77;92.58
74798;BME280;63326;45.088;7.658;2023-01-09T08:00:35;97773.41;;;3.57;91.97
74798;BME280;63326;45.088;7.658;2023-01-09T08:03:02;97768.78;;;3.59;92.14
74798;BME280;63326;45.088;7.658;2023-01-09T08:05:29;97770.13;;;3.63;92.39
74798;BME280;63326;45.088;7.658;2023-01-09T08:07:55;97741.75;;;3.47;92.58
74798;BME280;63326;45.088;7.658;2023-01-09T08:10:22;97744.44;;;3.64;92.44
74798;BME280;63326;45.088;7.658;2023-01-09T08:12:49;97759.59;;;3.80;92.41
74798;BME280;63326;45.088;7.658;2023-01-09T08:15:15;97766.50;;;3.72;92.59
74798;BME280;63326;45.088;7.658;2023-01-09T08:17:43;97773.50;;;3.82;91.92
74798;BME280;63326;45.088;7.658;2023-01-09T08:20:12;97768.22;;;3.98;92.44
74798;BME280;63326;45.088;7.658;2023-01-09T08:22:44;97755.75;;;3.82;91.76
74798;BME280;63326;45.088;7.658;2023-01-09T08:25:15;97762.25;;;3.96;90.93
74798;BME280;63326;45.088;7.658;2023-01-09T08:27:42;97765.09;;;4.19;90.93
74798;BME280;63326;45.088;7.658;2023-01-09T08:30:10;97735.09;;;4.02;90.61
74798;BME280;63326;45.088;7.658;2023-01-09T08:32:36;97754.03;;;4.40;90.07
74798;BME280;63326;45.088;7.658;2023-01-09T08:35:04;97765.97;;;4.36;89.35
74798;BME280;63326;45.088;7.658;2023-01-09T08:37:31;97754.03;;;4.31;88.46
74798;BME280;63326;45.088;7.658;2023-01-09T08:39:57;97757.84;;;4.45;88.13
74798;BME280;63326;45.088;7.658;2023-01-09T08:42:24;97765.91;;;5.09;86.01
74798;BME280;63326;45.088;7.658;2023-01-09T08:45:12;97755.09;;;5.18;84.06
74798;BME280;63326;45.088;7.658;2023-01-09T08:47:57;97750.06;;;5.40;83.34
74798;BME280;63326;45.088;7.658;2023-01-09T08:50:23;97724.50;;;5.31;82.28
74798;BME280;63326;45.088;7.658;2023-01-09T08:52:50;97750.69;;;5.50;81.77
74798;BME280;63326;45.088;7.658;2023-01-09T08:55:17;97758.81;;;5.01;83.40
74798;BME280;63326;45.088;7.658;2023-01-09T08:57:50;97751.50;;;4.95;84.33
74798;BME280;63326;45.088;7.658;2023-01-09T09:00:18;97735.84;;;5.16;83.68
74798;BME280;63326;45.088;7.658;2023-01-09T09:02:50;97717.06;;;5.65;82.23
74798;BME280;63326;45.088;7.658;2023-01-09T09:05:17;97730.75;;;6.16;80.31
74798;BME280;63326;45.088;7.658;2023-01-09T09:07:49;97721.25;;;6.59;79.34
74798;BME280;63326;45.088;7.658;2023-01-09T09:10:17;97718.66;;;7.04;75.81
74798;BME280;63326;45.088;7.658;2023-01-09T09:12:46;97715.53;;;7.95;73.88
74798;BME280;63326;45.088;7.658;2023-01-09T09:15:13;97718.47;;;8.36;71.34
74798;BME280;63326;45.088;7.658;2023-01-09T09:17:54;97719.97;;;8.46;68.71
74798;BME280;63326;45.088;7.658;2023-01-09T09:20:23;97695.25;;;8.86;66.05
74798;BME280;63326;45.088;7.658;2023-01-09T09:22:50;97707.19;;;9.53;65.49
74798;BME280;63326;45.088;7.658;2023-01-09T09:25:17;97716.69;;;9.69;61.66
74798;BME280;63326;45.088;7.658;2023-01-09T09:27:44;97722.16;;;9.41;63.01
74798;BME280;63326;45.088;7.658;2023-01-09T09:30:13;97721.28;;;10.62;61.86
74798;BME280;63326;45.088;7.658;2023-01-09T09:32:41;97707.03;;;11.21;59.70
74798;BME280;63326;45.088;7.658;2023-01-09T09:35:08;97676.09;;;11.12;56.88
74798;BME280;63326;45.088;7.658;2023-01-09T09:37:35;97703.75;;;11.19;59.20
74798;BME280;63326;45.088;7.658;2023-01-09T09:40:03;97703.88;;;12.02;57.65
74798;BME280;63326;45.088;7.658;2023-01-09T09:46:11;97682.59;;;11.56;55.42
74798;BME280;63326;45.088;7.658;2023-01-09T09:48:49;97682.28;;;12.54;53.80
74798;BME280;63326;45.088;7.658;2023-01-09T09:51:41;97665.38;;;13.40;51.17
74798;BME280;63326;45.088;7.658;2023-01-09T09:54:17;97674.19;;;13.83;50.41
74798;BME280;63326;45.088;7.658;2023-01-09T09:56:55;97673.53;;;14.30;47.75
74798;BME280;63326;45.088;7.658;2023-01-09T09:59:25;97670.88;;;14.83;47.59
74798;BME280;63326;45.088;7.658;2023-01-09T10:01:58;97674.25;;;16.01;45.18
74798;BME280;63326;45.088;7.658;2023-01-09T10:04:27;97669.41;;;16.93;41.43
74798;BME280;63326;45.088;7.658;2023-01-09T10:07:01;97655.84;;;14.87;43.48
74798;BME280;63326;45.088;7.658;2023-01-09T10:14:54;97647.16;;;14.97;43.04
74798;BME280;63326;45.088;7.658;2023-01-09T10:17:39;97656.38;;;15.60;43.62
74798;BME280;63326;45.088;7.658;2023-01-09T10:20:51;97665.25;;;16.69;39.21
74798;BME280;63326;45.088;7.658;2023-01-09T10:23:44;97661.78;;;15.60;38.84
74798;BME280;63326;45.088;7.658;2023-01-09T10:26:15;97655.84;;;14.87;42.29
74798;BME280;63326;45.088;7.658;2023-01-09T10:32:16;97655.06;;;12.44;47.76
74798;BME280;63326;45.088;7.658;2023-01-09T10:37:19;97642.03;;;12.47;48.07
74798;BME280;63326;45.088;7.658;2023-01-09T10:42:34;97636.81;;;11.38;50.74
74798;BME280;63326;45.088;7.658;2023-01-09T10:45:13;97629.97;;;11.42;51.15
74798;BME280;63326;45.088;7.658;2023-01-09T10:47:41;97618.41;;;11.41;51.13
74798;BME280;63326;45.088;7.658;2023-01-09T10:50:18;97617.66;;;11.21;47.21
74798;BME280;63326;45.088;7.658;2023-01-09T10:52:46;97621.66;;;10.99;48.20
74798;BME280;63326;45.088;7.658;2023-01-09T10:55:23;97618.63;;;10.68;43.57
74798;BME280;63326;45.088;7.658;2023-01-09T10:57:57;97595.13;;;10.57;40.89
74798;BME280;63326;45.088;7.658;2023-01-09T11:00:25;97578.84;;;10.52;40.58
74798;BME280;63326;45.088;7.658;2023-01-09T11:02:53;97591.84;;;10.55;41.70
74798;BME280;63326;45.088;7.658;2023-01-09T11:05:26;97573.88;;;10.62;43.20
74798;BME280;63326;45.088;7.658;2023-01-09T11:13:21;97549.09;;;10.87;39.66
74798;BME280;63326;45.088;7.658;2023-01-09T11:15:58;97558.72;;;11.01;43.65
74798;BME280;63326;45.088;7.658;2023-01-09T11:18:26;97551.72;;;11.00;40.15
74798;BME280;63326;45.088;7.658;2023-01-09T11:20:53;97541.94;;;11.25;36.10
74798;BME280;63326;45.088;7.658;2023-01-09T11:23:30;97552.88;;;11.24;40.51
74798;BME280;63326;45.088;7.658;2023-01-09T11:26:00;97564.50;;;11.05;41.21
74798;BME280;63326;45.088;7.658;2023-01-09T11:28:27;97559.25;;;11.23;40.40
74798;BME280;63326;45.088;7.658;2023-01-09T11:30:59;97537.41;;;11.19;39.02
74798;BME280;63326;45.088;7.658;2023-01-09T11:33:37;97533.56;;;11.47;35.78
74798;BME280;63326;45.088;7.658;2023-01-09T11:36:13;97545.63;;;12.01;33.44
74798;BME280;63326;45.088;7.658;2023-01-09T11:38:59;97533.16;;;12.31;34.30
74798;BME280;63326;45.088;7.658;2023-01-09T11:41:32;97539.38;;;12.32;33.92
74798;BME280;63326;45.088;7.658;2023-01-09T11:44:02;97551.63;;;12.28;35.52
74798;BME280;63326;45.088;7.658;2023-01-09T11:46:30;97544.53;;;12.08;37.19
74798;BME280;63326;45.088;7.658;2023-01-09T11:49:00;97551.56;;;12.09;38.62
74798;BME280;63326;45.088;7.658;2023-01-09T11:51:32;97547.81;;;11.79;38.64
74798;BME280;63326;45.088;7.658;2023-01-09T11:54:20;97548.31;;;12.01;37.47
74798;BME280;63326;45.088;7.658;2023-01-09T11:56:49;97538.34;;;12.08;36.25
74798;BME280;63326;45.088;7.658;2023-01-09T11:59:20;97539.88;;;12.22;35.98
74798;BME280;63326;45.088;7.658;2023-01-09T12:04:34;97551.59;;;12.53;33.34
74798;BME280;63326;45.088;7.658;2023-01-09T12:10:30;97545.25;;;12.84;31.14
74798;BME280;63326;45.088;7.658;2023-01-09T12:13:23;97545.97;;;12.97;33.07
74798;BME280;63326;45.088;7.658;2023-01-09T12:16:13;97514.78;;;13.08;28.39
74798;BME280;63326;45.088;7.658;2023-01-09T12:52:41;97491.38;;;17.71;20.19
74798;BME280;63326;45.088;7.658;2023-01-09T12:55:21;97491.47;;;18.13;20.60
74798;BME280;63326;45.088;7.658;2023-01-09T12:57:54;97489.78;;;19.44;18.69
74798;BME280;63326;45.088;7.658;2023-01-09T13:00:31;97495.78;;;19.46;18.69
74798;BME280;63326;45.088;7.658;2023-01-09T13:03:08;97483.41;;;20.57;17.83
74798;BME280;63326;45.088;7.658;2023-01-09T13:05:45;97495.06;;;20.78;17.73
74798;BME280;63326;45.088;7.658;2023-01-09T13:08:20;97485.28;;;20.67;17.88
74798;BME280;63326;45.088;7.658;2023-01-09T13:10:55;97468.44;;;20.14;18.20
74798;BME280;63326;45.088;7.658;2023-01-09T13:13:31;97483.16;;;21.34;18.06
74798;BME280;63326;45.088;7.658;2023-01-09T13:16:05;97471.63;;;21.52;16.29
74798;BME280;63326;45.088;7.658;2023-01-09T13:18:48;97478.53;;;22.23;16.73
74798;BME280;63326;45.088;7.658;2023-01-09T13:21:18;97489.13;;;21.41;16.36
74798;BME280;63326;45.088;7.658;2023-01-09T13:26:24;97493.72;;;20.40;15.31
74798;BME280;63326;45.088;7.658;2023-01-09T13:28:56;97469.44;;;19.52;15.91
74798;BME280;63326;45.088;7.658;2023-01-09T13:34:32;97479.53;;;19.62;15.60
74798;BME280;63326;45.088;7.658;2023-01-09T13:37:00;97480.09;;;18.91;15.67
74798;BME280;63326;45.088;7.658;2023-01-09T13:39:31;97478.75;;;18.98;15.52
74798;BME280;63326;45.088;7.658;2023-01-09T13:42:01;97480.38;;;19.88;14.83
74798;BME280;63326;45.088;7.658;2023-01-09T13:44:51;97471.91;;;20.86;14.10
74798;BME280;63326;45.088;7.658;2023-01-09T13:47:27;97484.75;;;19.89;14.67
74798;BME280;63326;45.088;7.658;2023-01-09T13:50:19;97483.34;;;18.98;15.41
74798;BME280;63326;45.088;7.658;2023-01-09T13:52:47;97490.19;;;19.73;14.92
74798;BME280;63326;45.088;7.658;2023-01-09T13:57:45;97509.16;;;18.90;15.04
74798;BME280;63326;45.088;7.658;2023-01-09T14:03:15;97493.19;;;17.93;16.52
74798;BME280;63326;45.088;7.658;2023-01-09T14:08:17;97491.22;;;18.15;16.54
74798;BME280;63326;45.088;7.658;2023-01-09T14:10:50;97494.31;;;18.29;16.80
74798;BME280;63326;45.088;7.658;2023-01-09T14:13:27;97513.25;;;17.43;16.97
74798;BME280;63326;45.088;7.658;2023-01-09T14:16:04;97493.59;;;18.06;17.23
74798;BME280;63326;45.088;7.658;2023-01-09T14:18:36;97498.75;;;17.54;17.56
74798;BME280;63326;45.088;7.658;2023-01-09T14:21:05;97487.50;;;17.40;17.92
74798;BME280;63326;45.088;7.658;2023-01-09T14:23:54;97497.66;;;17.77;17.33
74798;BME280;63326;45.088;7.658;2023-01-09T14:26:44;97505.59;;;17.35;18.37
74798;BME280;63326;45.088;7.658;2023-01-09T14:35:01;97505.19;;;16.82;17.83
74798;BME280;63326;45.088;7.658;2023-01-09T14:37:31;97509.81;;;17.47;17.76
74798;BME280;63326;45.088;7.658;2023-01-09T14:40:05;97516.81;;;17.21;18.14
74798;BME280;63326;45.088;7.658;2023-01-09T14:42:34;97506.78;;;16.45;18.61
74798;BME280;63326;45.088;7.658;2023-01-09T14:45:17;97515.09;;;16.21;18.65
74798;BME280;63326;45.088;7.658;2023-01-09T14:48:02;97531.56;;;16.70;18.82
74798;BME280;63326;45.088;7.658;2023-01-09T14:50:47;97534.19;;;17.25;18.77
74798;BME280;63326;45.088;7.658;2023-01-09T14:53:30;97530.59;;;16.98;17.76
74798;BME280;63326;45.088;7.658;2023-01-09T14:56:01;97516.63;;;16.00;17.64
74798;BME280;63326;45.088;7.658;2023-01-09T14:58:32;97540.50;;;16.37;18.35
74798;BME280;63326;45.088;7.658;2023-01-09T15:03:39;97541.00;;;17.99;17.00
74798;BME280;63326;45.088;7.658;2023-01-09T15:06:18;97549.13;;;17.28;17.23
74798;BME280;63326;45.088;7.658;2023-01-09T15:08:48;97533.31;;;16.98;17.97
74798;BME280;63326;45.088;7.658;2023-01-09T15:11:17;97537.53;;;16.72;17.30
74798;BME280;63326;45.088;7.658;2023-01-09T15:13:46;97539.25;;;15.25;19.36
74798;BME280;63326;45.088;7.658;2023-01-09T15:16:18;97568.19;;;16.44;18.93